createdAt,value
2022-08-01T00:00:28.404Z,18.2
2022-08-01T00:02:30.486Z,18.2
2022-08-01T00:04:32.390Z,18.2
2022-08-01T00:06:34.394Z,18.2
2022-08-01T00:08:36.391Z,18.2
2022-08-01T00:10:38.378Z,18.2
2022-08-01T00:12:40.384Z,18.2
2022-08-01T00:14:45.459Z,18.2
2022-08-01T00:16:47.466Z,18.2
2022-08-01T00:18:49.460Z,18.2
2022-08-01T00:19:52.005Z,18.2
2022-08-01T00:21:54.010Z,18.2
2022-08-01T00:23:55.994Z,18.2
2022-08-01T00:25:57.992Z,18.2
2022-08-01T00:28:04.061Z,18.2
2022-08-01T00:30:13.278Z,18.2
2022-08-01T00:32:07.493Z,18.1
2022-08-01T00:34:09.083Z,18.2
2022-08-01T00:36:11.070Z,18.1
2022-08-01T00:38:13.097Z,18.2
2022-08-01T00:40:15.078Z,18.1
2022-08-01T00:48:26.149Z,18.1
2022-08-01T00:54:32.149Z,18.1
2022-08-01T00:58:39.211Z,18.1
2022-08-01T01:00:53.815Z,18
2022-08-01T01:08:50.756Z,18
2022-08-01T01:10:55.773Z,17.9
2022-08-01T01:12:57.778Z,17.9
2022-08-01T01:14:59.786Z,17.9
2022-08-01T01:16:02.431Z,17.9
2022-08-01T01:18:04.335Z,17.9
2022-08-01T01:20:06.340Z,17.8
2022-08-01T01:22:08.516Z,17.8
2022-08-01T01:24:13.429Z,17.8
2022-08-01T01:26:15.416Z,17.8
2022-08-01T01:28:17.441Z,17.8
2022-08-01T01:30:19.423Z,17.8
2022-08-01T01:32:21.430Z,17.9
2022-08-01T01:34:23.445Z,17.9
2022-08-01T01:36:25.465Z,17.8
2022-08-01T01:38:30.520Z,17.8
2022-08-01T01:40:32.527Z,17.8
2022-08-01T01:42:34.566Z,17.8
2022-08-01T01:44:36.539Z,17.8
2022-08-01T01:46:38.546Z,17.8
2022-08-01T01:48:40.585Z,17.8
2022-08-01T01:50:42.553Z,17.8
2022-08-01T02:02:57.815Z,17.7
2022-08-01T02:04:59.662Z,17.7
2022-08-01T02:09:06.773Z,17.7
2022-08-01T02:11:08.795Z,17.7
2022-08-01T02:13:31.382Z,17.7
2022-08-01T02:17:35.431Z,17.7
2022-08-01T02:19:40.465Z,17.7
2022-08-01T02:23:44.520Z,17.7
2022-08-01T02:26:09.955Z,17.7
2022-08-01T02:27:48.467Z,17.7
2022-08-01T02:29:50.471Z,17.6
2022-08-01T02:33:57.559Z,17.7
2022-08-01T02:38:01.579Z,17.7
2022-08-01T02:42:05.811Z,17.7
2022-08-01T02:44:07.601Z,17.7
2022-08-01T02:46:09.628Z,17.7
2022-08-01T03:06:36.771Z,17.7
2022-08-01T03:07:40.573Z,17.7
2022-08-01T03:10:38.428Z,17.7
2022-08-01T03:11:43.354Z,17.7
2022-08-01T03:13:45.344Z,17.7
2022-08-01T03:15:50.435Z,17.7
2022-08-01T03:17:52.451Z,17.7
2022-08-01T03:19:54.438Z,17.7
2022-08-01T03:21:56.439Z,17.7
2022-08-01T03:23:58.456Z,17.7
2022-08-01T03:26:00.586Z,17.7
2022-08-01T03:28:02.462Z,17.7
2022-08-01T03:30:07.579Z,17.7
2022-08-01T03:32:09.590Z,17.7
2022-08-01T03:34:11.552Z,17.7
2022-08-01T03:36:13.557Z,17.7
2022-08-01T03:38:16.627Z,17.7
2022-08-01T03:43:08.436Z,17.7
2022-08-01T03:44:24.631Z,17.7
2022-08-01T03:50:30.647Z,17.8
2022-08-01T03:52:32.651Z,17.7
2022-08-01T03:58:41.711Z,17.7
2022-08-01T04:00:43.715Z,17.7
2022-08-01T04:07:52.278Z,17.7
2022-08-01T04:09:54.290Z,17.8
2022-08-01T04:14:01.352Z,17.8
2022-08-01T04:16:03.325Z,17.8
2022-08-01T04:18:05.351Z,17.8
2022-08-01T04:22:09.329Z,17.8
2022-08-01T04:24:11.356Z,17.8
2022-08-01T04:26:16.433Z,17.8
2022-08-01T04:30:21.092Z,17.8
2022-08-01T04:32:22.423Z,17.8
2022-08-01T04:34:24.475Z,17.8
2022-08-01T04:36:26.438Z,17.8
2022-08-01T04:40:33.531Z,17.8
2022-08-01T04:42:43.849Z,17.8
2022-08-01T04:48:41.544Z,17.4
2022-08-01T04:52:45.547Z,17.3
2022-08-01T04:54:50.618Z,17.2
2022-08-01T04:56:52.600Z,17.2
2022-08-01T04:58:54.627Z,17.2
2022-08-01T04:59:57.151Z,17.2
2022-08-01T05:04:01.188Z,17.2
2022-08-01T05:06:03.210Z,17.2
2022-08-01T05:08:08.294Z,17.2
2022-08-01T05:12:12.287Z,17.2
2022-08-01T05:16:16.319Z,17.3
2022-08-01T05:18:18.327Z,17.3
2022-08-01T05:20:20.308Z,17.2
2022-08-01T05:24:27.369Z,17.3
2022-08-01T05:26:29.398Z,17.3
2022-08-01T05:28:31.413Z,17.3
2022-08-01T05:30:33.418Z,17.3
2022-08-01T05:32:35.422Z,17.4
2022-08-01T05:34:37.450Z,17.5
2022-08-01T05:36:42.501Z,17.6
2022-08-01T05:38:44.525Z,17.6
2022-08-01T05:40:46.538Z,17.8
2022-08-01T05:48:54.582Z,18.2
2022-08-01T05:50:59.599Z,18.2
2022-08-01T05:53:01.636Z,18.2
2022-08-01T05:55:03.599Z,18.2
2022-08-01T05:57:26.340Z,18.3
2022-08-01T05:59:28.372Z,18.2
2022-08-01T06:01:30.367Z,18.2
2022-08-01T06:03:35.435Z,18.2
2022-08-01T06:05:37.436Z,18.3
2022-08-01T06:07:39.417Z,18.5
2022-08-01T06:09:41.435Z,18.5
2022-08-01T06:11:43.421Z,18.7
2022-08-01T06:13:48.516Z,18.6
2022-08-01T06:15:47.445Z,18.6
2022-08-01T06:17:52.528Z,18.5
2022-08-01T06:19:54.549Z,18.5
2022-08-01T06:21:56.489Z,18.6
2022-08-01T06:23:58.493Z,18.5
2022-08-01T06:26:00.458Z,18.4
2022-08-01T06:28:02.481Z,18.4
2022-08-01T06:30:04.485Z,18.5
2022-08-01T06:32:09.535Z,18.5
2022-08-01T06:34:11.545Z,18.6
2022-08-01T06:36:13.563Z,18.6
2022-08-01T06:38:15.521Z,18.7
2022-08-01T06:40:17.678Z,18.8
2022-08-01T06:42:19.508Z,18.9
2022-08-01T06:44:21.478Z,19
2022-08-01T06:46:30.266Z,18.8
2022-08-01T06:48:28.552Z,18.8
2022-08-01T06:50:30.549Z,18.8
2022-08-01T06:51:33.181Z,19.1
2022-08-01T06:53:36.636Z,19.3
2022-08-01T06:55:37.037Z,20.7
2022-08-01T06:57:39.056Z,23.1
2022-08-01T06:59:54.200Z,21.6
2022-08-01T07:01:47.586Z,20.8
2022-08-01T07:03:54.558Z,19.6
2022-08-01T07:05:51.542Z,19.1
2022-08-01T07:07:53.537Z,19
2022-08-01T07:09:55.491Z,19.3
2022-08-01T07:14:02.538Z,19.7
2022-08-01T07:16:04.503Z,19.9
2022-08-01T07:18:06.508Z,20.3
2022-08-01T07:20:08.460Z,20.2
2022-08-01T07:22:10.418Z,19.7
2022-08-01T07:26:14.377Z,19.5
2022-08-01T07:28:19.427Z,19.3
2022-08-01T07:30:21.403Z,19.2
2022-08-01T07:32:23.370Z,19.1
2022-08-01T07:34:25.365Z,19
2022-08-01T07:36:27.305Z,18.7
2022-08-01T07:38:29.301Z,18.6
2022-08-01T07:40:31.273Z,18.6
2022-08-01T07:44:38.301Z,18.9
2022-08-01T07:46:40.263Z,18.8
2022-08-01T07:47:42.794Z,18.8
2022-08-01T07:49:44.794Z,18.8
2022-08-01T07:52:03.642Z,18.8
2022-08-01T07:53:48.725Z,18.8
2022-08-01T07:55:53.769Z,18.8
2022-08-01T07:57:55.774Z,18.8
2022-08-01T07:59:57.745Z,18.9
2022-08-01T08:01:59.816Z,18.9
2022-08-01T08:04:01.697Z,19.1
2022-08-01T08:06:03.673Z,18.9
2022-08-01T08:08:05.646Z,19.5
2022-08-01T08:10:10.714Z,19.3
2022-08-01T08:12:12.709Z,19.2
2022-08-01T08:14:14.673Z,18.9
2022-08-01T08:20:20.683Z,18.7
2022-08-01T08:22:22.572Z,19
2022-08-01T08:24:27.642Z,19.5
2022-08-01T08:26:29.632Z,19.6
2022-08-01T08:30:33.580Z,19.5
2022-08-01T08:32:35.553Z,19.5
2022-08-01T08:34:37.523Z,19.2
2022-08-01T08:36:39.524Z,19.1
2022-08-01T08:38:44.551Z,19.2
2022-08-01T08:40:46.527Z,19.2
2022-08-01T08:43:51.063Z,19.2
2022-08-01T08:45:59.182Z,19.1
2022-08-01T08:54:03.986Z,19.6
2022-08-01T09:00:09.906Z,19.9
2022-08-01T09:08:20.875Z,19.9
2022-08-01T09:10:22.849Z,20.1
2022-08-01T09:12:24.791Z,20.2
2022-08-01T09:18:30.657Z,20.1
2022-08-01T09:20:35.699Z,19.9
2022-08-01T09:22:37.750Z,19.9
2022-08-01T09:24:39.627Z,19.7
2022-08-01T09:28:47.775Z,19.7
2022-08-01T09:32:47.485Z,20.8
2022-08-01T09:34:52.509Z,21
2022-08-01T09:36:54.612Z,21
2022-08-01T09:38:56.386Z,20.7
2022-08-01T09:41:19.531Z,20.3
2022-08-01T09:43:20.882Z,20.2
2022-08-01T09:45:23.288Z,20.7
2022-08-01T09:47:27.899Z,20.9
2022-08-01T09:49:49.768Z,20.7
2022-08-01T09:51:58.750Z,21.1
2022-08-01T09:53:33.715Z,20.9
2022-08-01T09:55:35.651Z,21.1
2022-08-01T09:57:37.601Z,21.3
2022-08-01T09:59:57.271Z,21.3
2022-08-01T10:03:46.629Z,21.4
2022-08-01T10:05:49.926Z,21.4
2022-08-01T10:07:50.399Z,20.9
2022-08-01T10:09:52.323Z,21.1
2022-08-01T10:11:54.255Z,22
2022-08-01T10:13:56.226Z,22.7
2022-08-01T10:16:01.255Z,22.5
2022-08-01T10:18:03.154Z,22.3
2022-08-01T10:20:05.094Z,22.4
2022-08-01T10:22:07.025Z,23
2022-08-01T10:24:08.938Z,22.8
2022-08-01T10:26:10.867Z,22.8
2022-08-01T10:32:19.699Z,22.4
2022-08-01T10:34:23.107Z,22.3
2022-08-01T10:35:47.165Z,22.3
2022-08-01T10:37:27.023Z,22.8
2022-08-01T10:39:27.939Z,23
2022-08-01T10:41:29.868Z,23
2022-08-01T10:43:35.357Z,22.8
2022-08-01T10:45:36.770Z,22.4
2022-08-01T10:47:50.825Z,21.6
2022-08-01T10:49:40.761Z,21.3
2022-08-01T10:51:52.919Z,21.6
2022-08-01T10:53:44.412Z,22.7
2022-08-01T10:55:46.306Z,22.8
2022-08-01T10:57:53.026Z,23
2022-08-01T11:03:58.970Z,23.8
2022-08-01T11:05:58.969Z,23.1
2022-08-01T11:08:00.869Z,23.2
2022-08-01T11:10:02.739Z,24
2022-08-01T11:12:07.744Z,23.3
2022-08-01T11:14:09.625Z,22.8
2022-08-01T11:16:16.423Z,22.3
2022-08-01T11:18:13.438Z,22.9
2022-08-01T11:20:15.336Z,22.7
2022-08-01T11:22:17.177Z,23.1
2022-08-01T11:26:29.104Z,22.7
2022-08-01T11:28:30.182Z,23
2022-08-01T11:30:27.843Z,23.5
2022-08-01T11:31:30.369Z,23.1
2022-08-01T11:33:32.222Z,23.2
2022-08-01T11:37:35.966Z,23.1
2022-08-01T11:39:40.963Z,22.9
2022-08-01T11:41:44.882Z,23
2022-08-01T11:43:44.728Z,23.3
2022-08-01T11:45:46.629Z,23.1
2022-08-01T11:47:49.886Z,22.4
2022-08-01T11:49:50.471Z,22.3
2022-08-01T11:51:52.292Z,22.5
2022-08-01T11:53:57.294Z,22.2
2022-08-01T11:55:59.167Z,22.2
2022-08-01T11:58:01.286Z,22.4
2022-08-01T12:00:04.455Z,22.3
2022-08-01T12:04:06.758Z,22.9
2022-08-01T12:06:08.643Z,23.1
2022-08-01T12:08:13.820Z,23.5
2022-08-01T12:10:16.316Z,23.6
2022-08-01T12:12:17.413Z,23.3
2022-08-01T12:14:19.294Z,23.1
2022-08-01T12:16:21.187Z,23.3
2022-08-01T12:18:23.083Z,23
2022-08-01T12:20:24.976Z,23.1
2022-08-01T12:22:29.949Z,23
2022-08-01T12:24:31.859Z,22.9
2022-08-01T12:26:33.729Z,23.2
2022-08-01T12:31:39.979Z,23.2
2022-08-01T12:33:41.920Z,23.1
2022-08-01T12:35:46.855Z,23.7
2022-08-01T12:37:48.762Z,23.8
2022-08-01T12:39:50.639Z,24.3
2022-08-01T12:41:52.505Z,24.2
2022-08-01T12:43:54.382Z,24.2
2022-08-01T12:45:57.396Z,23.9
2022-08-01T12:50:04.653Z,22.9
2022-08-01T12:52:10.223Z,22.8
2022-08-01T12:54:08.342Z,22.5
2022-08-01T12:56:10.215Z,22.7
2022-08-01T12:58:16.126Z,23.1
2022-08-01T13:00:13.969Z,23.2
2022-08-01T13:02:15.861Z,23.7
2022-08-01T13:04:20.825Z,24.6
2022-08-01T13:06:22.696Z,24.9
2022-08-01T13:08:24.575Z,24.9
2022-08-01T13:10:26.460Z,25.4
2022-08-01T13:12:28.315Z,25.7
2022-08-01T13:16:55.942Z,25.5
2022-08-01T13:18:36.999Z,25.5
2022-08-01T13:20:38.867Z,25.5
2022-08-01T13:22:40.691Z,25.7
2022-08-01T13:25:01.099Z,25
2022-08-01T13:29:04.781Z,24.6
2022-08-01T13:31:09.716Z,25.4
2022-08-01T13:33:11.527Z,25.2
2022-08-01T13:35:13.369Z,24.2
2022-08-01T13:37:15.174Z,23.9
2022-08-01T13:41:18.812Z,25
2022-08-01T13:43:20.654Z,25.1
2022-08-01T13:45:26.545Z,25.5
2022-08-01T13:47:31.109Z,25.5
2022-08-01T13:49:37.446Z,25.5
2022-08-01T13:51:31.003Z,25.1
2022-08-01T13:53:32.800Z,25.4
2022-08-01T13:55:35.474Z,25.3
2022-08-01T13:59:41.306Z,25.4
2022-08-01T14:01:43.182Z,25.4
2022-08-01T14:11:52.105Z,25.1
2022-08-01T14:13:56.936Z,25.3
2022-08-01T14:18:00.508Z,23.9
2022-08-01T14:19:04.059Z,24.2
2022-08-01T14:21:05.597Z,24.4
2022-08-01T14:23:09.023Z,25.1
2022-08-01T14:25:08.315Z,25.2
2022-08-01T14:27:13.214Z,25.5
2022-08-01T14:29:15.000Z,25.2
2022-08-01T14:31:16.957Z,25.5
2022-08-01T14:33:18.552Z,25.9
2022-08-01T14:35:20.330Z,25.7
2022-08-01T14:37:22.098Z,25.3
2022-08-01T14:39:23.871Z,25.2
2022-08-01T14:41:28.760Z,24.8
2022-08-01T14:43:33.060Z,24.4
2022-08-01T14:45:32.283Z,24.5
2022-08-01T14:47:34.065Z,25.2
2022-08-01T14:51:37.572Z,25.2
2022-08-01T14:53:39.313Z,25
2022-08-01T14:55:44.202Z,25.3
2022-08-01T14:57:45.702Z,25.3
2022-08-01T14:59:47.448Z,25.5
2022-08-01T15:01:49.211Z,24.8
2022-08-01T15:03:50.978Z,24.6
2022-08-01T15:05:52.696Z,25
2022-08-01T15:07:54.531Z,24.9
2022-08-01T15:09:59.295Z,25.1
2022-08-01T15:12:01.006Z,24.6
2022-08-01T15:14:02.737Z,24.6
2022-08-01T15:15:05.175Z,24.8
2022-08-01T15:17:06.912Z,24.8
2022-08-01T15:19:08.627Z,24.5
2022-08-01T15:21:14.539Z,24.4
2022-08-01T15:23:15.240Z,24.3
2022-08-01T15:25:16.971Z,24.5
2022-08-01T15:27:18.875Z,24.8
2022-08-01T15:29:20.429Z,25
2022-08-01T15:31:22.136Z,25.3
2022-08-01T15:33:23.857Z,25.2
2022-08-01T15:35:25.595Z,25.4
2022-08-01T15:37:30.556Z,25.1
2022-08-01T15:39:32.141Z,25
2022-08-01T15:41:33.837Z,25.2
2022-08-01T15:49:40.639Z,24.8
2022-08-01T15:53:47.168Z,24.8
2022-08-01T15:55:52.364Z,24.9
2022-08-01T15:57:50.581Z,25.1
2022-08-01T15:59:52.261Z,24.8
2022-08-01T16:03:55.726Z,25.2
2022-08-01T16:06:00.467Z,25.2
2022-08-01T16:08:02.215Z,25.4
2022-08-01T16:15:09.644Z,26.3
2022-08-01T16:17:11.377Z,26.2
2022-08-01T16:23:19.523Z,26.2
2022-08-01T16:25:21.218Z,26.3
2022-08-01T16:35:36.392Z,27.1
2022-08-01T16:37:34.453Z,27.8
2022-08-01T16:43:39.477Z,27.3
2022-08-01T16:45:42.636Z,27.4
2022-08-01T16:51:49.334Z,28.1
2022-08-01T16:53:51.028Z,27.7
2022-08-01T16:59:56.078Z,27.6
2022-08-01T17:02:02.547Z,27.8
2022-08-01T17:04:02.608Z,28
2022-08-01T17:06:04.275Z,27.7
2022-08-01T17:08:26.813Z,27.2
2022-08-01T17:10:28.541Z,27.1
2022-08-01T17:12:30.187Z,27.3
2022-08-01T17:14:35.014Z,27.4
2022-08-01T17:16:36.711Z,27.6
2022-08-01T17:18:38.445Z,27.8
2022-08-01T17:20:40.141Z,27.3
2022-08-01T17:22:42.171Z,27.9
2022-08-01T17:24:43.875Z,28.2
2022-08-01T17:28:50.413Z,27.2
2022-08-01T17:30:52.180Z,26.9
2022-08-01T17:32:53.825Z,26.4
2022-08-01T17:34:55.557Z,26.8
2022-08-01T17:41:00.756Z,27.6
2022-08-01T17:45:07.356Z,27.8
2022-08-01T17:49:10.850Z,28.4
2022-08-01T17:51:12.540Z,28.3
2022-08-01T17:53:14.264Z,28.1
2022-08-01T17:55:53.285Z,27.8
2022-08-01T17:57:20.860Z,28.1
2022-08-01T17:59:22.590Z,27.9
2022-08-01T18:01:26.628Z,27.2
2022-08-01T18:02:26.769Z,27.8
2022-08-01T18:04:28.494Z,28
2022-08-01T18:06:30.314Z,27.9
2022-08-01T18:08:31.966Z,27.4
2022-08-01T18:10:39.966Z,27
2022-08-01T18:12:38.586Z,27.1
2022-08-01T18:14:41.223Z,27.1
2022-08-01T18:16:42.195Z,26.4
2022-08-01T18:18:43.870Z,26.2
2022-08-01T18:20:45.601Z,26.5
2022-08-01T18:22:47.355Z,26.4
2022-08-01T18:24:52.228Z,26.2
2022-08-01T18:26:54.027Z,26.1
2022-08-01T18:28:55.797Z,25.6
2022-08-01T18:32:59.393Z,25.3
2022-08-01T18:35:01.142Z,25.4
2022-08-01T18:41:11.139Z,22
2022-08-01T18:43:12.921Z,21.1
2022-08-01T18:45:14.763Z,20.5
2022-08-01T18:47:16.644Z,20.1
2022-08-01T18:51:20.372Z,19.7
2022-08-01T18:53:25.370Z,19.5
2022-08-01T18:55:27.285Z,19.5
2022-08-01T18:58:31.714Z,19.2
2022-08-01T19:00:33.657Z,19.1
2022-08-01T19:08:44.596Z,18.7
2022-08-01T19:10:46.591Z,18.6
2022-08-01T19:12:48.574Z,18.5
2022-08-01T19:14:50.555Z,18.4
2022-08-01T19:16:52.553Z,18.3
2022-08-01T19:18:54.637Z,18.1
2022-08-01T19:20:59.660Z,17.9
2022-08-01T19:23:01.712Z,17.9
2022-08-01T19:25:03.665Z,17.7
2022-08-01T19:27:08.716Z,17.5
2022-08-01T19:29:07.742Z,17.4
2022-08-01T19:31:09.755Z,17.3
2022-08-01T19:33:11.785Z,17.2
2022-08-01T19:35:17.377Z,17
2022-08-01T19:37:18.937Z,17
2022-08-01T19:39:20.977Z,16.8
2022-08-01T19:41:23.035Z,16.7
2022-08-01T19:43:25.053Z,16.6
2022-08-01T19:45:27.080Z,16.5
2022-08-01T19:47:52.312Z,16.4
2022-08-01T19:49:34.279Z,16.2
2022-08-01T19:51:36.340Z,16.2
2022-08-01T19:53:38.364Z,16.1
2022-08-01T19:54:40.913Z,16.1
2022-08-01T19:56:42.942Z,16
2022-08-01T19:58:44.994Z,16
2022-08-01T20:00:47.067Z,15.8
2022-08-01T20:08:58.359Z,15.7
2022-08-01T20:11:05.427Z,15.6
2022-08-01T20:13:02.593Z,15.6
2022-08-01T20:15:04.546Z,15.5
2022-08-01T20:19:11.754Z,15.4
2022-08-01T20:21:13.820Z,15.4
2022-08-01T20:23:18.178Z,15.3
2022-08-01T20:27:20.028Z,15.3
2022-08-01T20:33:29.261Z,15.2
2022-08-01T20:35:51.635Z,15.2
2022-08-01T20:38:03.668Z,15.1
2022-08-01T20:43:39.615Z,14.9
2022-08-01T20:45:44.769Z,14.8
2022-08-01T20:47:46.843Z,14.8
2022-08-01T20:49:48.918Z,14.8
2022-08-01T20:54:07.977Z,14.7
2022-08-01T20:56:10.040Z,14.6
2022-08-01T20:58:15.183Z,14.5
2022-08-01T21:00:17.264Z,14.5
2022-08-01T21:02:19.318Z,14.5
2022-08-01T21:04:21.406Z,14.4
2022-08-01T21:06:23.494Z,14.4
2022-08-01T21:08:25.561Z,14.4
2022-08-01T21:10:27.644Z,14.3
2022-08-01T21:12:32.749Z,14.2
2022-08-01T21:14:34.926Z,14.2
2022-08-01T21:16:36.926Z,14.2
2022-08-01T21:18:39.009Z,14.1
2022-08-01T21:20:41.054Z,14.1
2022-08-01T21:22:43.122Z,14
2022-08-01T21:24:45.206Z,14
2022-08-01T21:26:50.367Z,14
2022-08-01T21:28:54.553Z,13.9
2022-08-01T21:30:55.965Z,13.9
2022-08-01T21:32:56.563Z,13.9
2022-08-01T21:34:58.653Z,13.8
2022-08-01T21:37:00.728Z,13.7
2022-08-01T21:39:02.801Z,13.7
2022-08-01T21:41:07.938Z,13.7
2022-08-01T21:43:10.053Z,13.6
2022-08-01T21:45:12.087Z,13.6
2022-08-01T21:46:14.676Z,13.5
2022-08-01T21:48:16.751Z,13.5
2022-08-01T21:50:18.815Z,13.5
2022-08-01T21:52:21.748Z,13.4
2022-08-01T21:54:26.145Z,13.4
2022-08-01T21:56:28.117Z,13.4
2022-08-01T21:58:30.208Z,13.4
2022-08-01T22:00:32.274Z,13.4
2022-08-01T22:02:34.421Z,13.5
2022-08-01T22:04:36.434Z,13.5
2022-08-01T22:06:38.506Z,13.4
2022-08-01T22:08:43.649Z,13.3
2022-08-01T22:10:45.735Z,13.3
2022-08-01T22:12:47.842Z,13.2
2022-08-01T22:14:49.868Z,13.2
2022-08-01T22:16:51.979Z,13.2
2022-08-01T22:18:54.044Z,13.1
2022-08-01T22:20:56.152Z,13
2022-08-01T22:23:01.252Z,12.9
2022-08-01T22:25:03.364Z,12.9
2022-08-01T22:27:05.400Z,12.9
2022-08-01T22:31:09.554Z,12.8
2022-08-01T22:33:17.080Z,12.8
2022-08-01T22:39:20.910Z,12.6
2022-08-01T22:42:25.623Z,12.6
2022-08-01T22:44:27.632Z,12.6
2022-08-01T22:46:29.719Z,12.5
2022-08-01T22:48:34.801Z,12.5
2022-08-01T22:50:36.947Z,12.5
2022-08-01T22:52:39.005Z,12.5
2022-08-01T22:54:41.114Z,12.5
2022-08-01T22:56:43.176Z,12.4
2022-08-01T22:58:45.287Z,12.3
2022-08-01T23:00:47.348Z,12.3
2022-08-01T23:02:49.415Z,12.4
2022-08-01T23:04:54.549Z,12.4
2022-08-01T23:06:56.602Z,12.4
2022-08-01T23:08:58.694Z,12.4
2022-08-01T23:13:02.855Z,12.3
2022-08-01T23:17:27.631Z,12.3
2022-08-01T23:19:12.137Z,12.3
2022-08-01T23:21:14.275Z,12.3
2022-08-01T23:23:16.293Z,12.4
2022-08-01T23:25:18.368Z,12.3
2022-08-01T23:27:20.430Z,12.3
2022-08-01T23:29:22.501Z,12.3
2022-08-01T23:32:00.673Z,12.4
2022-08-01T23:33:29.767Z,12.4
2022-08-01T23:35:31.792Z,12.4
2022-08-01T23:37:33.894Z,12.4
2022-08-01T23:38:36.448Z,12.4
2022-08-01T23:40:38.518Z,12.4
2022-08-01T23:44:42.674Z,12.3
2022-08-01T23:46:47.828Z,12.3
2022-08-01T23:48:49.972Z,12.3
2022-08-01T23:50:51.952Z,12.3
2022-08-01T23:52:54.036Z,12.4
